sensor_id;sensor_type;location;lat;lon;timestamp;P1;durP1;ratioP1;P2;durP2;ratioP2
19043;SDS011;9654;52.302;8.120;2022-12-29T00:01:26;4.73;;;4.23;;
19043;SDS011;9654;52.302;8.120;2022-12-29T00:03:53;4.27;;;3.97;;
19043;SDS011;9654;52.302;8.120;2022-12-29T00:06:20;5.10;;;4.60;;
19043;SDS011;9654;52.302;8.120;2022-12-29T00:08:46;5.87;;;4.60;;
19043;SDS011;9654;52.302;8.120;2022-12-29T00:11:15;4.87;;;4.47;;
19043;SDS011;9654;52.302;8.120;2022-12-29T00:13:43;5.23;;;4.80;;
19043;SDS011;9654;52.302;8.120;2022-12-29T00:16:29;4.67;;;4.37;;
19043;SDS011;9654;52.302;8.120;2022-12-29T00:18:57;4.50;;;4.20;;
19043;SDS011;9654;52.302;8.120;2022-12-29T00:21:24;4.17;;;3.87;;
19043;SDS011;9654;52.302;8.120;2022-12-29T00:24:09;4.03;;;3.73;;
19043;SDS011;9654;52.302;8.120;2022-12-29T00:26:57;4.37;;;4.07;;
19043;SDS011;9654;52.302;8.120;2022-12-29T00:29:51;5.70;;;4.37;;
19043;SDS011;9654;52.302;8.120;2022-12-29T00:32:36;4.73;;;4.00;;
19043;SDS011;9654;52.302;8.120;2022-12-29T00:35:23;3.67;;;3.40;;
19043;SDS011;9654;52.302;8.120;2022-12-29T00:37:52;3.90;;;3.70;;
19043;SDS011;9654;52.302;8.120;2022-12-29T00:40:39;4.13;;;3.73;;
19043;SDS011;9654;52.302;8.120;2022-12-29T00:43:24;3.80;;;3.50;;
19043;SDS011;9654;52.302;8.120;2022-12-29T00:46:08;4.93;;;4.53;;
19043;SDS011;9654;52.302;8.120;2022-12-29T00:48:36;3.97;;;3.60;;
19043;SDS011;9654;52.302;8.120;2022-12-29T00:51:22;3.80;;;3.50;;
19043;SDS011;9654;52.302;8.120;2022-12-29T00:53:49;3.53;;;3.23;;
19043;SDS011;9654;52.302;8.120;2022-12-29T00:56:16;3.40;;;3.20;;
19043;SDS011;9654;52.302;8.120;2022-12-29T00:58:43;3.50;;;3.30;;
19043;SDS011;9654;52.302;8.120;2022-12-29T01:01:09;3.40;;;3.20;;
19043;SDS011;9654;52.302;8.120;2022-12-29T01:03:38;3.60;;;3.30;;
19043;SDS011;9654;52.302;8.120;2022-12-29T01:06:05;3.33;;;3.07;;
19043;SDS011;9654;52.302;8.120;2022-12-29T01:08:34;3.03;;;2.87;;
19043;SDS011;9654;52.302;8.120;2022-12-29T01:11:02;3.40;;;3.10;;
19043;SDS011;9654;52.302;8.120;2022-12-29T01:13:30;3.60;;;3.30;;
19043;SDS011;9654;52.302;8.120;2022-12-29T01:15:57;3.10;;;2.80;;
19043;SDS011;9654;52.302;8.120;2022-12-29T01:18:25;3.10;;;2.90;;
19043;SDS011;9654;52.302;8.120;2022-12-29T01:20:59;7.03;;;3.03;;
19043;SDS011;9654;52.302;8.120;2022-12-29T01:23:26;2.90;;;2.80;;
19043;SDS011;9654;52.302;8.120;2022-12-29T01:25:53;2.80;;;2.60;;
19043;SDS011;9654;52.302;8.120;2022-12-29T01:28:20;2.70;;;2.50;;
19043;SDS011;9654;52.302;8.120;2022-12-29T01:30:47;2.90;;;2.50;;
19043;SDS011;9654;52.302;8.120;2022-12-29T01:33:13;2.20;;;2.00;;
19043;SDS011;9654;52.302;8.120;2022-12-29T01:35:40;2.77;;;2.27;;
19043;SDS011;9654;52.302;8.120;2022-12-29T01:38:08;2.33;;;2.13;;
19043;SDS011;9654;52.302;8.120;2022-12-29T01:40:42;1.80;;;1.70;;
19043;SDS011;9654;52.302;8.120;2022-12-29T01:43:10;1.90;;;1.80;;
19043;SDS011;9654;52.302;8.120;2022-12-29T01:45:41;2.70;;;1.77;;
19043;SDS011;9654;52.302;8.120;2022-12-29T01:48:14;2.20;;;2.00;;
19043;SDS011;9654;52.302;8.120;2022-12-29T01:50:42;1.40;;;1.30;;
19043;SDS011;9654;52.302;8.120;2022-12-29T01:53:16;1.60;;;1.50;;
19043;SDS011;9654;52.302;8.120;2022-12-29T01:55:48;2.60;;;1.50;;
19043;SDS011;9654;52.302;8.120;2022-12-29T01:58:18;3.43;;;1.40;;
19043;SDS011;9654;52.302;8.120;2022-12-29T02:00:48;1.50;;;1.50;;
19043;SDS011;9654;52.302;8.120;2022-12-29T02:03:15;3.23;;;1.90;;
19043;SDS011;9654;52.302;8.120;2022-12-29T02:05:45;2.20;;;2.00;;
19043;SDS011;9654;52.302;8.120;2022-12-29T02:08:17;2.40;;;2.20;;
19043;SDS011;9654;52.302;8.120;2022-12-29T02:10:45;2.77;;;2.67;;
19043;SDS011;9654;52.302;8.120;2022-12-29T02:13:14;2.70;;;2.60;;
19043;SDS011;9654;52.302;8.120;2022-12-29T02:15:45;3.83;;;3.23;;
19043;SDS011;9654;52.302;8.120;2022-12-29T02:18:22;3.00;;;2.80;;
19043;SDS011;9654;52.302;8.120;2022-12-29T02:24:11;2.60;;;2.50;;
19043;SDS011;9654;52.302;8.120;2022-12-29T02:26:59;2.43;;;2.27;;
19043;SDS011;9654;52.302;8.120;2022-12-29T02:30:02;2.33;;;2.13;;
19043;SDS011;9654;52.302;8.120;2022-12-29T02:32:37;2.07;;;1.97;;
19043;SDS011;9654;52.302;8.120;2022-12-29T02:35:17;1.90;;;1.80;;
19043;SDS011;9654;52.302;8.120;2022-12-29T02:37:53;1.70;;;1.70;;
19043;SDS011;9654;52.302;8.120;2022-12-29T02:40:27;2.23;;;2.13;;
19043;SDS011;9654;52.302;8.120;2022-12-29T02:43:04;1.90;;;1.80;;
19043;SDS011;9654;52.302;8.120;2022-12-29T02:45:42;2.70;;;2.50;;
19043;SDS011;9654;52.302;8.120;2022-12-29T02:48:15;2.80;;;2.60;;
19043;SDS011;9654;52.302;8.120;2022-12-29T02:50:48;2.70;;;2.60;;
19043;SDS011;9654;52.302;8.120;2022-12-29T02:53:20;3.10;;;2.90;;
19043;SDS011;9654;52.302;8.120;2022-12-29T02:56:03;2.87;;;2.67;;
19043;SDS011;9654;52.302;8.120;2022-12-29T02:58:30;2.67;;;2.47;;
19043;SDS011;9654;52.302;8.120;2022-12-29T03:01:01;2.30;;;2.20;;
19043;SDS011;9654;52.302;8.120;2022-12-29T03:03:44;2.10;;;2.00;;
19043;SDS011;9654;52.302;8.120;2022-12-29T03:06:22;2.27;;;2.17;;
19043;SDS011;9654;52.302;8.120;2022-12-29T03:09:00;1.80;;;1.70;;
19043;SDS011;9654;52.302;8.120;2022-12-29T03:11:38;1.93;;;1.83;;
19043;SDS011;9654;52.302;8.120;2022-12-29T03:14:27;1.63;;;1.53;;
19043;SDS011;9654;52.302;8.120;2022-12-29T03:17:18;2.30;;;1.90;;
19043;SDS011;9654;52.302;8.120;2022-12-29T03:19:51;1.53;;;1.50;;
19043;SDS011;9654;52.302;8.120;2022-12-29T03:22:25;1.60;;;1.50;;
19043;SDS011;9654;52.302;8.120;2022-12-29T03:24:57;2.67;;;1.40;;
19043;SDS011;9654;52.302;8.120;2022-12-29T03:27:27;1.30;;;1.30;;
19043;SDS011;9654;52.302;8.120;2022-12-29T03:29:59;1.00;;;1.00;;
19043;SDS011;9654;52.302;8.120;2022-12-29T03:32:29;1.67;;;1.10;;
19043;SDS011;9654;52.302;8.120;2022-12-29T03:35:00;0.90;;;0.90;;
19043;SDS011;9654;52.302;8.120;2022-12-29T03:37:29;1.70;;;1.00;;
19043;SDS011;9654;52.302;8.120;2022-12-29T03:40:01;0.67;;;0.67;;
19043;SDS011;9654;52.302;8.120;2022-12-29T03:42:29;1.03;;;0.93;;
19043;SDS011;9654;52.302;8.120;2022-12-29T03:44:58;0.60;;;0.60;;
19043;SDS011;9654;52.302;8.120;2022-12-29T03:47:25;2.40;;;1.03;;
19043;SDS011;9654;52.302;8.120;2022-12-29T03:49:52;1.70;;;0.67;;
19043;SDS011;9654;52.302;8.120;2022-12-29T03:52:20;0.60;;;0.50;;
19043;SDS011;9654;52.302;8.120;2022-12-29T03:54:47;0.57;;;0.57;;
19043;SDS011;9654;52.302;8.120;2022-12-29T03:57:14;0.70;;;0.70;;
19043;SDS011;9654;52.302;8.120;2022-12-29T03:59:40;1.23;;;0.53;;
19043;SDS011;9654;52.302;8.120;2022-12-29T04:02:07;0.47;;;0.47;;
19043;SDS011;9654;52.302;8.120;2022-12-29T04:04:34;0.63;;;0.63;;
19043;SDS011;9654;52.302;8.120;2022-12-29T04:07:01;0.60;;;0.60;;
19043;SDS011;9654;52.302;8.120;2022-12-29T04:09:29;0.97;;;0.60;;
19043;SDS011;9654;52.302;8.120;2022-12-29T04:11:56;0.70;;;0.70;;
19043;SDS011;9654;52.302;8.120;2022-12-29T04:14:23;1.33;;;0.70;;
19043;SDS011;9654;52.302;8.120;2022-12-29T04:16:49;0.83;;;0.70;;
19043;SDS011;9654;52.302;8.120;2022-12-29T04:19:16;0.60;;;0.60;;
19043;SDS011;9654;52.302;8.120;2022-12-29T04:21:43;1.63;;;0.97;;
19043;SDS011;9654;52.302;8.120;2022-12-29T04:24:10;1.97;;;0.80;;
19043;SDS011;9654;52.302;8.120;2022-12-29T04:26:39;1.77;;;0.70;;
19043;SDS011;9654;52.302;8.120;2022-12-29T04:29:06;0.60;;;0.60;;
19043;SDS011;9654;52.302;8.120;2022-12-29T04:31:33;2.60;;;0.70;;
19043;SDS011;9654;52.302;8.120;2022-12-29T04:34:00;0.60;;;0.60;;
19043;SDS011;9654;52.302;8.120;2022-12-29T04:36:27;0.60;;;0.60;;
19043;SDS011;9654;52.302;8.120;2022-12-29T04:38:53;1.40;;;0.70;;
19043;SDS011;9654;52.302;8.120;2022-12-29T04:41:20;0.50;;;0.50;;
19043;SDS011;9654;52.302;8.120;2022-12-29T04:43:48;2.53;;;0.60;;
19043;SDS011;9654;52.302;8.120;2022-12-29T04:46:15;5.27;;;1.17;;
19043;SDS011;9654;52.302;8.120;2022-12-29T04:48:42;1.63;;;0.67;;
19043;SDS011;9654;52.302;8.120;2022-12-29T04:51:09;1.80;;;0.97;;
19043;SDS011;9654;52.302;8.120;2022-12-29T04:53:36;1.67;;;0.73;;
19043;SDS011;9654;52.302;8.120;2022-12-29T04:56:02;0.80;;;0.77;;
19043;SDS011;9654;52.302;8.120;2022-12-29T04:58:29;4.60;;;0.90;;
19043;SDS011;9654;52.302;8.120;2022-12-29T05:00:57;1.77;;;0.80;;
19043;SDS011;9654;52.302;8.120;2022-12-29T05:03:24;1.40;;;0.90;;
19043;SDS011;9654;52.302;8.120;2022-12-29T05:05:52;2.80;;;1.10;;
19043;SDS011;9654;52.302;8.120;2022-12-29T05:08:19;1.90;;;1.17;;
19043;SDS011;9654;52.302;8.120;2022-12-29T05:10:46;0.67;;;0.67;;
19043;SDS011;9654;52.302;8.120;2022-12-29T05:13:13;3.03;;;0.77;;
19043;SDS011;9654;52.302;8.120;2022-12-29T05:15:39;1.13;;;0.60;;
19043;SDS011;9654;52.302;8.120;2022-12-29T05:18:07;0.60;;;0.50;;
19043;SDS011;9654;52.302;8.120;2022-12-29T05:20:34;0.97;;;0.53;;
19043;SDS011;9654;52.302;8.120;2022-12-29T05:23:01;0.70;;;0.70;;
19043;SDS011;9654;52.302;8.120;2022-12-29T05:25:28;0.87;;;0.60;;
19043;SDS011;9654;52.302;8.120;2022-12-29T05:27:54;0.50;;;0.50;;
19043;SDS011;9654;52.302;8.120;2022-12-29T05:30:21;0.87;;;0.60;;
19043;SDS011;9654;52.302;8.120;2022-12-29T05:32:48;0.70;;;0.70;;
19043;SDS011;9654;52.302;8.120;2022-12-29T05:35:16;1.47;;;0.67;;
19043;SDS011;9654;52.302;8.120;2022-12-29T05:37:43;0.60;;;0.60;;
19043;SDS011;9654;52.302;8.120;2022-12-29T05:40:10;0.77;;;0.60;;
19043;SDS011;9654;52.302;8.120;2022-12-29T05:42:37;1.13;;;0.43;;
19043;SDS011;9654;52.302;8.120;2022-12-29T05:45:04;3.03;;;0.70;;
19043;SDS011;9654;52.302;8.120;2022-12-29T05:47:32;0.50;;;0.50;;
19043;SDS011;9654;52.302;8.120;2022-12-29T05:49:59;2.30;;;0.73;;
19043;SDS011;9654;52.302;8.120;2022-12-29T05:52:27;2.20;;;0.87;;
19043;SDS011;9654;52.302;8.120;2022-12-29T05:54:54;1.07;;;0.60;;
19043;SDS011;9654;52.302;8.120;2022-12-29T05:57:21;1.80;;;0.80;;
19043;SDS011;9654;52.302;8.120;2022-12-29T05:59:47;2.87;;;0.70;;
19043;SDS011;9654;52.302;8.120;2022-12-29T06:02:14;1.20;;;0.60;;
19043;SDS011;9654;52.302;8.120;2022-12-29T06:04:41;2.20;;;0.70;;
19043;SDS011;9654;52.302;8.120;2022-12-29T06:07:08;1.10;;;0.83;;
19043;SDS011;9654;52.302;8.120;2022-12-29T06:09:36;0.70;;;0.70;;
19043;SDS011;9654;52.302;8.120;2022-12-29T06:12:03;1.80;;;0.53;;
19043;SDS011;9654;52.302;8.120;2022-12-29T06:14:30;3.27;;;0.40;;
19043;SDS011;9654;52.302;8.120;2022-12-29T06:16:56;0.50;;;0.50;;
19043;SDS011;9654;52.302;8.120;2022-12-29T06:19:24;3.10;;;0.43;;
19043;SDS011;9654;52.302;8.120;2022-12-29T06:21:51;1.60;;;0.50;;
19043;SDS011;9654;52.302;8.120;2022-12-29T06:24:18;0.97;;;0.33;;
19043;SDS011;9654;52.302;8.120;2022-12-29T06:26:46;1.60;;;0.30;;
19043;SDS011;9654;52.302;8.120;2022-12-29T06:29:13;0.70;;;0.40;;
19043;SDS011;9654;52.302;8.120;2022-12-29T06:31:42;0.57;;;0.20;;
19043;SDS011;9654;52.302;8.120;2022-12-29T06:34:10;2.00;;;0.30;;
19043;SDS011;9654;52.302;8.120;2022-12-29T06:36:37;1.83;;;0.50;;
19043;SDS011;9654;52.302;8.120;2022-12-29T06:39:04;1.37;;;0.30;;
19043;SDS011;9654;52.302;8.120;2022-12-29T06:41:31;1.30;;;0.40;;
19043;SDS011;9654;52.302;8.120;2022-12-29T06:43:59;1.10;;;0.40;;
19043;SDS011;9654;52.302;8.120;2022-12-29T06:46:26;1.30;;;0.50;;
19043;SDS011;9654;52.302;8.120;2022-12-29T06:48:52;1.73;;;0.40;;
19043;SDS011;9654;52.302;8.120;2022-12-29T06:51:19;0.93;;;0.53;;
19043;SDS011;9654;52.302;8.120;2022-12-29T06:53:46;3.23;;;0.70;;
19043;SDS011;9654;52.302;8.120;2022-12-29T06:56:13;2.63;;;0.60;;
19043;SDS011;9654;52.302;8.120;2022-12-29T06:58:39;2.10;;;0.60;;
19043;SDS011;9654;52.302;8.120;2022-12-29T07:01:07;2.20;;;0.40;;
19043;SDS011;9654;52.302;8.120;2022-12-29T07:03:34;4.93;;;0.90;;
19043;SDS011;9654;52.302;8.120;2022-12-29T07:06:01;4.50;;;1.53;;
19043;SDS011;9654;52.302;8.120;2022-12-29T07:08:28;4.50;;;1.00;;
19043;SDS011;9654;52.302;8.120;2022-12-29T07:10:54;3.23;;;1.30;;
19043;SDS011;9654;52.302;8.120;2022-12-29T07:13:21;2.93;;;1.27;;
19043;SDS011;9654;52.302;8.120;2022-12-29T07:15:48;4.23;;;0.77;;
19043;SDS011;9654;52.302;8.120;2022-12-29T07:18:16;4.40;;;0.67;;
19043;SDS011;9654;52.302;8.120;2022-12-29T07:20:43;3.60;;;0.80;;
19043;SDS011;9654;52.302;8.120;2022-12-29T07:23:10;1.63;;;1.10;;
19043;SDS011;9654;52.302;8.120;2022-12-29T07:25:37;4.20;;;1.43;;
19043;SDS011;9654;52.302;8.120;2022-12-29T07:28:05;4.60;;;1.23;;
19043;SDS011;9654;52.302;8.120;2022-12-29T07:30:33;1.83;;;0.73;;
19043;SDS011;9654;52.302;8.120;2022-12-29T07:33:02;4.13;;;0.90;;
19043;SDS011;9654;52.302;8.120;2022-12-29T07:35:30;3.80;;;0.80;;
19043;SDS011;9654;52.302;8.120;2022-12-29T07:37:57;10.17;;;1.27;;
19043;SDS011;9654;52.302;8.120;2022-12-29T07:40:23;5.13;;;0.80;;
19043;SDS011;9654;52.302;8.120;2022-12-29T07:42:50;6.07;;;1.20;;
19043;SDS011;9654;52.302;8.120;2022-12-29T07:45:17;1.90;;;0.70;;
19043;SDS011;9654;52.302;8.120;2022-12-29T07:47:46;3.67;;;1.47;;
19043;SDS011;9654;52.302;8.120;2022-12-29T07:50:13;4.87;;;0.97;;
19043;SDS011;9654;52.302;8.120;2022-12-29T07:52:43;3.40;;;0.90;;
19043;SDS011;9654;52.302;8.120;2022-12-29T07:55:12;8.97;;;1.47;;
19043;SDS011;9654;52.302;8.120;2022-12-29T07:57:38;10.80;;;2.67;;
19043;SDS011;9654;52.302;8.120;2022-12-29T08:00:05;4.07;;;1.10;;
19043;SDS011;9654;52.302;8.120;2022-12-29T08:02:34;4.20;;;0.90;;
19043;SDS011;9654;52.302;8.120;2022-12-29T08:05:01;2.77;;;1.00;;
19043;SDS011;9654;52.302;8.120;2022-12-29T08:07:28;10.97;;;1.50;;
19043;SDS011;9654;52.302;8.120;2022-12-29T08:09:56;5.17;;;1.00;;
19043;SDS011;9654;52.302;8.120;2022-12-29T08:12:24;6.33;;;1.00;;
19043;SDS011;9654;52.302;8.120;2022-12-29T08:14:50;5.93;;;0.97;;
19043;SDS011;9654;52.302;8.120;2022-12-29T08:17:17;6.10;;;0.90;;
19043;SDS011;9654;52.302;8.120;2022-12-29T08:19:44;3.20;;;0.77;;
19043;SDS011;9654;52.302;8.120;2022-12-29T08:22:11;2.00;;;1.10;;
19043;SDS011;9654;52.302;8.120;2022-12-29T08:24:39;9.27;;;2.00;;
19043;SDS011;9654;52.302;8.120;2022-12-29T08:27:07;4.57;;;0.93;;
19043;SDS011;9654;52.302;8.120;2022-12-29T08:29:34;5.17;;;1.33;;
19043;SDS011;9654;52.302;8.120;2022-12-29T08:32:01;4.07;;;0.77;;
19043;SDS011;9654;52.302;8.120;2022-12-29T08:34:28;5.13;;;1.20;;
19043;SDS011;9654;52.302;8.120;2022-12-29T08:36:56;7.73;;;1.77;;
19043;SDS011;9654;52.302;8.120;2022-12-29T08:39:23;3.40;;;1.00;;
19043;SDS011;9654;52.302;8.120;2022-12-29T08:41:49;3.73;;;0.93;;
19043;SDS011;9654;52.302;8.120;2022-12-29T08:44:18;5.10;;;1.13;;
19043;SDS011;9654;52.302;8.120;2022-12-29T08:46:44;4.70;;;0.80;;
19043;SDS011;9654;52.302;8.120;2022-12-29T08:49:11;4.57;;;1.20;;
19043;SDS011;9654;52.302;8.120;2022-12-29T08:51:38;2.53;;;0.70;;
19043;SDS011;9654;52.302;8.120;2022-12-29T08:54:05;4.13;;;0.90;;
19043;SDS011;9654;52.302;8.120;2022-12-29T08:56:32;3.53;;;0.70;;
19043;SDS011;9654;52.302;8.120;2022-12-29T08:58:59;4.53;;;1.03;;
19043;SDS011;9654;52.302;8.120;2022-12-29T09:01:27;4.83;;;0.90;;
19043;SDS011;9654;52.302;8.120;2022-12-29T09:03:55;6.57;;;1.40;;
19043;SDS011;9654;52.302;8.120;2022-12-29T09:06:22;7.27;;;1.50;;
19043;SDS011;9654;52.302;8.120;2022-12-29T09:08:49;5.73;;;1.17;;
19043;SDS011;9654;52.302;8.120;2022-12-29T09:11:16;7.63;;;1.33;;
19043;SDS011;9654;52.302;8.120;2022-12-29T09:13:45;3.63;;;0.90;;
19043;SDS011;9654;52.302;8.120;2022-12-29T09:16:12;6.13;;;1.33;;
19043;SDS011;9654;52.302;8.120;2022-12-29T09:18:40;3.00;;;1.50;;
19043;SDS011;9654;52.302;8.120;2022-12-29T09:21:07;8.20;;;1.63;;
19043;SDS011;9654;52.302;8.120;2022-12-29T09:23:35;8.13;;;2.23;;
19043;SDS011;9654;52.302;8.120;2022-12-29T09:26:02;3.73;;;1.00;;
19043;SDS011;9654;52.302;8.120;2022-12-29T09:28:30;5.37;;;1.63;;
19043;SDS011;9654;52.302;8.120;2022-12-29T09:30:57;7.53;;;1.47;;
19043;SDS011;9654;52.302;8.120;2022-12-29T09:33:24;8.60;;;1.10;;
19043;SDS011;9654;52.302;8.120;2022-12-29T09:35:53;9.07;;;1.90;;
19043;SDS011;9654;52.302;8.120;2022-12-29T09:38:21;4.20;;;1.30;;
19043;SDS011;9654;52.302;8.120;2022-12-29T09:40:50;6.13;;;1.20;;
19043;SDS011;9654;52.302;8.120;2022-12-29T09:43:23;5.83;;;1.30;;
19043;SDS011;9654;52.302;8.120;2022-12-29T09:45:59;3.70;;;1.23;;
19043;SDS011;9654;52.302;8.120;2022-12-29T09:48:37;11.23;;;1.60;;
19043;SDS011;9654;52.302;8.120;2022-12-29T09:51:10;12.10;;;2.23;;
19043;SDS011;9654;52.302;8.120;2022-12-29T09:53:41;13.53;;;2.20;;
19043;SDS011;9654;52.302;8.120;2022-12-29T09:56:12;7.50;;;1.40;;
19043;SDS011;9654;52.302;8.120;2022-12-29T09:58:42;3.17;;;1.13;;
19043;SDS011;9654;52.302;8.120;2022-12-29T10:01:17;6.47;;;1.23;;
19043;SDS011;9654;52.302;8.120;2022-12-29T10:03:54;3.47;;;1.00;;
19043;SDS011;9654;52.302;8.120;2022-12-29T10:06:25;5.40;;;1.63;;
19043;SDS011;9654;52.302;8.120;2022-12-29T10:08:57;4.17;;;1.27;;
19043;SDS011;9654;52.302;8.120;2022-12-29T10:11:31;4.43;;;1.77;;
19043;SDS011;9654;52.302;8.120;2022-12-29T10:14:16;8.90;;;1.10;;
19043;SDS011;9654;52.302;8.120;2022-12-29T10:16:57;7.77;;;1.90;;
19043;SDS011;9654;52.302;8.120;2022-12-29T10:19:44;5.87;;;1.53;;
19043;SDS011;9654;52.302;8.120;2022-12-29T10:22:23;5.50;;;1.50;;
19043;SDS011;9654;52.302;8.120;2022-12-29T10:25:00;2.93;;;1.00;;
19043;SDS011;9654;52.302;8.120;2022-12-29T10:27:34;5.63;;;1.30;;
19043;SDS011;9654;52.302;8.120;2022-12-29T10:30:02;3.97;;;1.57;;
19043;SDS011;9654;52.302;8.120;2022-12-29T10:32:30;3.53;;;1.23;;
19043;SDS011;9654;52.302;8.120;2022-12-29T10:35:03;8.03;;;2.33;;
19043;SDS011;9654;52.302;8.120;2022-12-29T10:37:38;7.17;;;2.03;;
19043;SDS011;9654;52.302;8.120;2022-12-29T10:40:14;5.27;;;1.67;;
19043;SDS011;9654;52.302;8.120;2022-12-29T10:42:46;8.27;;;1.30;;
19043;SDS011;9654;52.302;8.120;2022-12-29T10:45:17;8.80;;;2.13;;
19043;SDS011;9654;52.302;8.120;2022-12-29T10:47:50;6.60;;;1.93;;
19043;SDS011;9654;52.302;8.120;2022-12-29T10:50:19;5.73;;;1.40;;
19043;SDS011;9654;52.302;8.120;2022-12-29T10:52:48;3.07;;;1.10;;
19043;SDS011;9654;52.302;8.120;2022-12-29T10:55:19;6.00;;;1.20;;
19043;SDS011;9654;52.302;8.120;2022-12-29T10:57:50;7.40;;;1.43;;
19043;SDS011;9654;52.302;8.120;2022-12-29T11:00:17;5.23;;;1.43;;
19043;SDS011;9654;52.302;8.120;2022-12-29T11:02:49;4.77;;;1.20;;
19043;SDS011;9654;52.302;8.120;2022-12-29T11:05:39;5.37;;;1.47;;
19043;SDS011;9654;52.302;8.120;2022-12-29T11:08:14;3.63;;;1.03;;
19043;SDS011;9654;52.302;8.120;2022-12-29T11:10:44;6.73;;;1.13;;
19043;SDS011;9654;52.302;8.120;2022-12-29T11:13:13;7.27;;;1.67;;
19043;SDS011;9654;52.302;8.120;2022-12-29T11:15:41;7.93;;;1.40;;
19043;SDS011;9654;52.302;8.120;2022-12-29T11:18:19;5.40;;;1.40;;
19043;SDS011;9654;52.302;8.120;2022-12-29T11:20:48;3.90;;;1.33;;
19043;SDS011;9654;52.302;8.120;2022-12-29T11:23:25;4.10;;;1.23;;
19043;SDS011;9654;52.302;8.120;2022-12-29T11:26:05;5.30;;;1.30;;
19043;SDS011;9654;52.302;8.120;2022-12-29T11:28:44;2.63;;;1.10;;
19043;SDS011;9654;52.302;8.120;2022-12-29T11:31:15;8.77;;;1.40;;
19043;SDS011;9654;52.302;8.120;2022-12-29T11:33:42;6.50;;;1.33;;
19043;SDS011;9654;52.302;8.120;2022-12-29T11:36:11;6.23;;;1.50;;
19043;SDS011;9654;52.302;8.120;2022-12-29T11:38:41;6.20;;;1.67;;
19043;SDS011;9654;52.302;8.120;2022-12-29T11:41:13;8.70;;;1.23;;
19043;SDS011;9654;52.302;8.120;2022-12-29T11:43:46;10.07;;;2.00;;
19043;SDS011;9654;52.302;8.120;2022-12-29T11:46:14;2.63;;;1.03;;
19043;SDS011;9654;52.302;8.120;2022-12-29T11:48:45;4.50;;;1.60;;
19043;SDS011;9654;52.302;8.120;2022-12-29T11:51:20;8.83;;;1.77;;
19043;SDS011;9654;52.302;8.120;2022-12-29T11:53:51;10.30;;;1.53;;
19043;SDS011;9654;52.302;8.120;2022-12-29T11:56:30;4.13;;;1.23;;
19043;SDS011;9654;52.302;8.120;2022-12-29T12:02:03;7.30;;;1.17;;
19043;SDS011;9654;52.302;8.120;2022-12-29T12:04:40;10.93;;;1.27;;
19043;SDS011;9654;52.302;8.120;2022-12-29T12:07:09;14.13;;;2.73;;
19043;SDS011;9654;52.302;8.120;2022-12-29T12:09:42;5.03;;;1.07;;
19043;SDS011;9654;52.302;8.120;2022-12-29T12:12:15;5.77;;;1.27;;
19043;SDS011;9654;52.302;8.120;2022-12-29T12:14:51;3.13;;;1.20;;
19043;SDS011;9654;52.302;8.120;2022-12-29T12:17:22;6.67;;;1.40;;
19043;SDS011;9654;52.302;8.120;2022-12-29T12:20:02;7.00;;;1.30;;
19043;SDS011;9654;52.302;8.120;2022-12-29T12:22:40;6.37;;;1.20;;
19043;SDS011;9654;52.302;8.120;2022-12-29T12:25:14;6.07;;;1.30;;
19043;SDS011;9654;52.302;8.120;2022-12-29T12:27:48;5.70;;;1.20;;
19043;SDS011;9654;52.302;8.120;2022-12-29T12:30:19;6.17;;;1.17;;
19043;SDS011;9654;52.302;8.120;2022-12-29T12:32:48;5.37;;;1.13;;
19043;SDS011;9654;52.302;8.120;2022-12-29T12:35:21;4.97;;;1.30;;
19043;SDS011;9654;52.302;8.120;2022-12-29T12:37:59;6.47;;;1.07;;
19043;SDS011;9654;52.302;8.120;2022-12-29T12:40:51;7.13;;;1.40;;
19043;SDS011;9654;52.302;8.120;2022-12-29T12:46:23;2.83;;;1.10;;
19043;SDS011;9654;52.302;8.120;2022-12-29T12:49:13;12.30;;;1.77;;
19043;SDS011;9654;52.302;8.120;2022-12-29T12:51:53;5.40;;;1.40;;
19043;SDS011;9654;52.302;8.120;2022-12-29T12:54:33;3.10;;;1.13;;
19043;SDS011;9654;52.302;8.120;2022-12-29T12:57:14;7.70;;;1.40;;
19043;SDS011;9654;52.302;8.120;2022-12-29T13:00:01;6.40;;;1.33;;
19043;SDS011;9654;52.302;8.120;2022-12-29T13:02:34;5.97;;;1.13;;
19043;SDS011;9654;52.302;8.120;2022-12-29T13:05:16;6.50;;;1.20;;
19043;SDS011;9654;52.302;8.120;2022-12-29T13:07:59;7.90;;;2.73;;
19043;SDS011;9654;52.302;8.120;2022-12-29T13:10:46;6.20;;;1.47;;
19043;SDS011;9654;52.302;8.120;2022-12-29T13:13:25;12.00;;;1.57;;
19043;SDS011;9654;52.302;8.120;2022-12-29T13:16:20;5.43;;;1.27;;
19043;SDS011;9654;52.302;8.120;2022-12-29T13:18:56;4.03;;;1.87;;
19043;SDS011;9654;52.302;8.120;2022-12-29T13:21:33;5.33;;;1.27;;
19043;SDS011;9654;52.302;8.120;2022-12-29T13:24:08;7.93;;;1.30;;
19043;SDS011;9654;52.302;8.120;2022-12-29T13:26:42;6.53;;;1.40;;
19043;SDS011;9654;52.302;8.120;2022-12-29T13:29:15;6.03;;;1.83;;
19043;SDS011;9654;52.302;8.120;2022-12-29T13:31:47;5.83;;;1.23;;
19043;SDS011;9654;52.302;8.120;2022-12-29T13:34:21;9.53;;;1.67;;
19043;SDS011;9654;52.302;8.120;2022-12-29T13:36:56;3.47;;;1.17;;
19043;SDS011;9654;52.302;8.120;2022-12-29T13:39:27;5.00;;;1.27;;
19043;SDS011;9654;52.302;8.120;2022-12-29T13:41:58;5.73;;;1.37;;
19043;SDS011;9654;52.302;8.120;2022-12-29T13:44:30;5.17;;;1.40;;
19043;SDS011;9654;52.302;8.120;2022-12-29T13:47:01;7.13;;;2.00;;
19043;SDS011;9654;52.302;8.120;2022-12-29T13:49:31;8.23;;;1.87;;
19043;SDS011;9654;52.302;8.120;2022-12-29T13:52:03;5.90;;;1.33;;
19043;SDS011;9654;52.302;8.120;2022-12-29T13:54:39;6.23;;;1.60;;
19043;SDS011;9654;52.302;8.120;2022-12-29T13:57:15;7.07;;;1.93;;
19043;SDS011;9654;52.302;8.120;2022-12-29T13:59:54;7.57;;;1.57;;
19043;SDS011;9654;52.302;8.120;2022-12-29T14:02:30;7.67;;;1.77;;
19043;SDS011;9654;52.302;8.120;2022-12-29T14:05:04;7.03;;;1.70;;
19043;SDS011;9654;52.302;8.120;2022-12-29T14:07:57;8.70;;;2.23;;
19043;SDS011;9654;52.302;8.120;2022-12-29T14:10:28;7.90;;;1.97;;
19043;SDS011;9654;52.302;8.120;2022-12-29T14:13:01;4.97;;;1.60;;
19043;SDS011;9654;52.302;8.120;2022-12-29T14:15:32;4.57;;;1.40;;
19043;SDS011;9654;52.302;8.120;2022-12-29T14:18:10;4.23;;;1.50;;
19043;SDS011;9654;52.302;8.120;2022-12-29T14:20:46;6.53;;;2.07;;
19043;SDS011;9654;52.302;8.120;2022-12-29T14:23:26;6.73;;;1.40;;
19043;SDS011;9654;52.302;8.120;2022-12-29T14:26:09;6.43;;;1.77;;
19043;SDS011;9654;52.302;8.120;2022-12-29T14:28:38;7.83;;;1.70;;
19043;SDS011;9654;52.302;8.120;2022-12-29T14:31:32;5.77;;;1.90;;
19043;SDS011;9654;52.302;8.120;2022-12-29T14:36:57;7.87;;;1.80;;
19043;SDS011;9654;52.302;8.120;2022-12-29T14:39:28;4.07;;;1.40;;
19043;SDS011;9654;52.302;8.120;2022-12-29T14:41:59;6.23;;;2.37;;
19043;SDS011;9654;52.302;8.120;2022-12-29T14:44:27;8.03;;;2.53;;
19043;SDS011;9654;52.302;8.120;2022-12-29T14:46:59;5.60;;;1.30;;
19043;SDS011;9654;52.302;8.120;2022-12-29T14:49:31;8.87;;;2.00;;
19043;SDS011;9654;52.302;8.120;2022-12-29T14:52:06;6.47;;;1.80;;
19043;SDS011;9654;52.302;8.120;2022-12-29T14:54:42;4.37;;;1.47;;
19043;SDS011;9654;52.302;8.120;2022-12-29T14:57:16;5.77;;;1.80;;
19043;SDS011;9654;52.302;8.120;2022-12-29T15:00:05;10.17;;;3.40;;
19043;SDS011;9654;52.302;8.120;2022-12-29T15:02:45;10.63;;;2.00;;
19043;SDS011;9654;52.302;8.120;2022-12-29T15:05:26;7.60;;;2.00;;
19043;SDS011;9654;52.302;8.120;2022-12-29T15:07:57;5.70;;;1.70;;
19043;SDS011;9654;52.302;8.120;2022-12-29T15:10:25;9.40;;;2.13;;
19043;SDS011;9654;52.302;8.120;2022-12-29T15:13:02;7.23;;;2.57;;
19043;SDS011;9654;52.302;8.120;2022-12-29T15:15:35;7.50;;;2.23;;
19043;SDS011;9654;52.302;8.120;2022-12-29T15:18:25;13.67;;;2.93;;
19043;SDS011;9654;52.302;8.120;2022-12-29T15:20:53;5.47;;;1.40;;
19043;SDS011;9654;52.302;8.120;2022-12-29T15:23:22;8.13;;;2.20;;
19043;SDS011;9654;52.302;8.120;2022-12-29T15:25:51;16.13;;;2.57;;
19043;SDS011;9654;52.302;8.120;2022-12-29T15:28:21;6.43;;;2.10;;
19043;SDS011;9654;52.302;8.120;2022-12-29T15:30:52;9.60;;;2.67;;
19043;SDS011;9654;52.302;8.120;2022-12-29T15:33:21;11.67;;;2.30;;
19043;SDS011;9654;52.302;8.120;2022-12-29T15:35:52;8.23;;;1.70;;
19043;SDS011;9654;52.302;8.120;2022-12-29T15:38:21;6.77;;;1.87;;